EDT,Max TemperatureF,Mean TemperatureF,Min TemperatureF,Max Dew PointF,MeanDew PointF,Min DewpointF,Max Humidity, Mean Humidity, Min Humidity, Max Sea Level PressureIn, Mean Sea Level PressureIn, Min Sea Level PressureIn, Max VisibilityMiles, Mean VisibilityMiles, Min VisibilityMiles, Max Wind SpeedMPH, Mean Wind SpeedMPH, Max Gust SpeedMPH,PrecipitationIn, CloudCover, Events, WindDirDegrees
2014-4-1,60,44,28,35,29,25,89,61,35,30.18,30.08,29.95,10,10,10,9,4,,0.00,0,,168
2014-4-2,68,51,36,41,36,31,89,65,27,30.12,30.06,29.98,10,10,9,9,2,21,0.00,1,,217
2014-4-3,60,52,45,45,32,21,93,52,22,30.17,30.09,29.99,10,8,2,9,6,,0.30,5,Rain,37
2014-4-4,48,44,43,45,42,39,93,86,74,30.00,29.86,29.73,10,8,2,12,6,22,0.27,8,Rain,137
2014-4-5,46,40,35,42,34,23,97,74,47,30.17,29.90,29.75,10,8,1,13,4,25,0.01,6,,257
2014-4-6,57,41,25,30,23,14,88,56,19,30.26,30.20,30.12,10,10,10,8,3,,0.00,0,,337
2014-4-7,48,39,30,45,37,27,96,88,73,30.17,29.93,29.58,10,5,1,8,3,,0.32,7,Rain,52
2014-4-8,55,46,36,48,42,33,96,80,49,29.70,29.54,29.45,10,8,2,15,5,25,0.07,6,Rain,221
2014-4-9,64,46,28,38,28,20,96,59,20,30.06,29.83,29.70,10,9,4,16,5,22,0.00,1,,336
2014-4-10,70,49,28,34,30,24,89,50,24,30.18,30.04,29.93,10,10,10,18,6,30,0.00,0,,191
2014-4-11,68,57,48,54,45,33,96,75,39,30.06,30.01,29.90,10,10,3,7,3,,0.17,7,Rain,272
2014-4-12,72,54,36,47,41,33,100,76,28,30.26,30.16,30.06,10,5,0,13,3,16,0.00,1,Fog,61
2014-4-13,84,70,57,53,49,34,72,51,30,30.10,30.00,29.90,10,10,9,17,9,24,0.00,1,,185
2014-4-14,78,70,64,54,52,50,67,53,43,29.92,29.82,29.73,10,10,10,18,10,33,0.00,2,,191
2014-4-15,68,52,33,62,48,19,94,82,56,30.06,29.67,29.50,10,6,1,24,9,38,1.40,8,Rain,249
2014-4-16,46,36,26,25,15,10,70,46,29,30.57,30.40,30.09,10,10,10,15,11,26,0.00,1,,346
2014-4-17,55,40,26,29,25,18,84,55,33,30.67,30.59,30.54,10,10,10,12,5,20,0.00,0,,161
2014-4-18,55,44,35,35,30,27,76,59,43,30.59,30.42,30.26,10,10,10,12,7,,0.00,0,,170
2014-4-19,64,49,34,38,29,24,93,51,23,30.38,30.32,30.26,10,9,4,16,5,22,0.00,0,,14
2014-4-20,66,50,34,34,31,29,82,50,28,30.45,30.37,30.29,10,10,10,9,3,17,0.00,0,,193
2014-4-21,72,54,37,35,31,28,83,44,21,30.28,30.07,29.84,10,10,10,13,4,,0.00,0,,165
2014-4-22,70,60,48,55,42,29,90,57,36,29.82,29.65,29.55,10,9,2,21,4,39,0.14,3,Rain,212
2014-4-23,57,48,36,35,32,28,82,56,44,29.99,29.81,29.68,10,10,10,20,11,38,0.00,5,,294
2014-4-24,64,46,30,30,20,13,85,38,15,30.12,30.04,29.99,10,10,10,13,6,22,0.00,0,,343
2014-4-25,66,49,34,45,33,17,90,59,20,30.05,29.88,29.75,10,10,6,18,4,30,0.11,4,Rain,165
2014-4-26,72,57,42,45,38,26,93,56,23,29.96,29.80,29.68,10,9,4,18,6,31,0.01,3,,293
2014-4-27,62,52,42,35,32,30,76,50,31,30.17,30.06,29.96,10,10,10,15,8,21,0.00,2,,352
2014-4-28,63,48,34,47,36,31,89,57,34,30.17,30.08,29.99,10,10,8,10,4,,0.00,2,Rain,184
2014-4-29,53,48,44,46,42,39,89,77,63,30.30,30.18,30.06,10,8,2,20,9,30,0.30,8,Rain,135
2014-4-30,54,50,45,52,47,40,97,88,79,30.27,30.03,29.83,10,8,2,12,5,18,0.55,8,Rain,84